Time;durP1;ratioP1;P1;durP2;ratioP2;P2;SDS_P1;SDS_P2;PMS_P1;PMS_P2;Temp;Humidity;BMP_temperature;BMP_pressure;BME280_temperature;BME280_humidity;BME280_pressure;Samples;Min_cycle;Max_cycle;Signal;HPM_P1;HPM_P2
2023/05/07 00:01:53;;;;;;;;;;;;;;;18.59;63.46;99887.94;4433455;32;33974;-79
2023/05/07 00:04:21;;;;;;;;;;;;;;;18.62;63.22;99896.59;4417337;32;32502;-79
2023/05/07 00:06:48;;;;;;;;;;;;;;;18.54;63.41;99898.12;4403330;32;34125;-79
2023/05/07 00:09:16;;;;;;;;;;;;;;;18.39;63.73;99897.47;4445320;32;34264;-79
2023/05/07 00:11:44;;;;;;;;;;;;;;;18.31;63.70;99899.84;4432411;32;34420;-79
2023/05/07 00:14:12;;;;;;;;;;;;;;;18.50;63.26;99899.34;4432833;32;33111;-79
2023/05/07 00:16:40;;;;;;;;;;;;;;;18.45;63.28;99901.50;4416883;32;34626;-79
2023/05/07 00:19:13;;;;;;;;;;;;;;;18.43;63.33;99894.44;4404729;32;34723;-79
2023/05/07 00:21:41;;;;;;;;;;;;;;;18.37;63.33;99891.38;4443023;32;34802;-79
2023/05/07 00:24:10;;;;;;;;;;;;;;;18.26;63.59;99891.31;4425672;32;32738;-79
2023/05/07 00:26:37;;;;;;;;;;;;;;;18.38;63.16;99896.63;4412452;32;34134;-79
2023/05/07 00:29:05;;;;;;;;;;;;;;;18.23;63.66;99902.22;4419823;32;34023;-79
2023/05/07 00:31:33;;;;;;;;;;;;;;;18.31;63.53;99899.84;4432719;32;34141;-78
2023/05/07 00:34:02;;;;;;;;;;;;;;;18.31;63.39;99892.69;4418941;32;33251;-79
2023/05/07 00:36:30;;;;;;;;;;;;;;;18.30;63.38;99900.81;4406051;32;31900;-79
2023/05/07 00:39:00;;;;;;;;;;;;;;;18.25;63.64;99897.62;4423071;32;34952;-79
2023/05/07 00:41:30;;;;;;;;;;;;;;;18.17;63.25;99895.53;4416991;32;34294;-79
2023/05/07 00:43:57;;;;;;;;;;;;;;;18.18;63.54;99902.56;4432065;32;33642;-79
2023/05/07 00:46:25;;;;;;;;;;;;;;;18.09;63.43;99897.94;4420424;32;34558;-78
2023/05/07 00:48:53;;;;;;;;;;;;;;;18.11;63.49;99899.50;4407046;32;33689;-79
2023/05/07 00:51:21;;;;;;;;;;;;;;;18.08;63.41;99899.72;4430724;32;34180;-79
2023/05/07 00:53:49;;;;;;;;;;;;;;;17.99;63.80;99905.72;4415963;32;32707;-79
2023/05/07 00:56:18;;;;;;;;;;;;;;;18.14;62.96;99911.81;4430115;32;33797;-79
2023/05/07 00:58:45;;;;;;;;;;;;;;;18.07;63.29;99905.19;4411020;32;34890;-78
2023/05/07 01:01:12;;;;;;;;;;;;;;;18.02;63.45;99900.19;4428439;32;34755;-79
2023/05/07 01:03:40;;;;;;;;;;;;;;;18.06;63.17;99907.00;4423563;32;33173;-79
2023/05/07 01:06:08;;;;;;;;;;;;;;;18.02;63.23;99900.19;4417354;32;33634;-79
2023/05/07 01:08:39;;;;;;;;;;;;;;;18.04;63.04;99894.72;4420548;32;32878;-79
2023/05/07 01:11:07;;;;;;;;;;;;;;;18.02;62.94;99904.66;4416319;32;33345;-79
2023/05/07 01:13:36;;;;;;;;;;;;;;;18.02;62.87;99900.19;4431355;32;33094;-79
2023/05/07 01:16:05;;;;;;;;;;;;;;;17.99;62.91;99899.53;4444047;32;34148;-79
2023/05/07 01:18:32;;;;;;;;;;;;;;;17.96;62.84;99900.63;4418591;32;33696;-79
2023/05/07 01:21:00;;;;;;;;;;;;;;;17.95;63.02;99890.91;4418056;32;33866;-78
2023/05/07 01:23:28;;;;;;;;;;;;;;;17.98;62.91;99906.69;4430793;32;33230;-78
2023/05/07 01:25:55;;;;;;;;;;;;;;;18.07;62.20;99903.34;4427922;32;33075;-78
2023/05/07 01:28:24;;;;;;;;;;;;;;;17.91;62.55;99911.66;4428633;32;33963;-78
2023/05/07 01:30:55;;;;;;;;;;;;;;;18.00;62.29;99912.81;4423603;32;34264;-78
2023/05/07 01:33:24;;;;;;;;;;;;;;;17.83;62.87;99910.50;4417947;32;32507;-78
2023/05/07 01:36:00;;;;;;;;;;;;;;;17.94;62.41;99921.25;4405857;32;33357;-79
2023/05/07 01:38:29;;;;;;;;;;;;;;;17.79;62.71;99914.34;4403814;32;34349;-79
2023/05/07 01:40:57;;;;;;;;;;;;;;;17.74;62.79;99919.16;4430822;32;33668;-79
2023/05/07 01:43:25;;;;;;;;;;;;;;;17.57;63.04;99915.00;4424679;32;33110;-79
2023/05/07 01:45:53;;;;;;;;;;;;;;;17.63;62.66;99919.91;4421790;32;34216;-79
2023/05/07 01:48:22;;;;;;;;;;;;;;;17.58;62.85;99917.56;4418503;32;34179;-79
2023/05/07 01:50:49;;;;;;;;;;;;;;;17.54;63.04;99918.72;4417693;32;33336;-79
2023/05/07 01:53:17;;;;;;;;;;;;;;;17.41;63.33;99917.87;4429745;32;32667;-79
2023/05/07 01:55:45;;;;;;;;;;;;;;;17.24;64.01;99918.22;4430631;32;33435;-79
2023/05/07 01:58:14;;;;;;;;;;;;;;;17.23;64.07;99911.16;4434075;32;34272;-79
2023/05/07 02:00:42;;;;;;;;;;;;;;;17.29;63.75;99905.41;4433075;32;35252;-79
2023/05/07 02:03:12;;;;;;;;;;;;;;;17.19;64.17;99905.19;4430799;32;33000;-79
2023/05/07 02:05:42;;;;;;;;;;;;;;;17.28;63.50;99904.56;4432204;32;33230;-78
2023/05/07 02:08:10;;;;;;;;;;;;;;;17.47;62.75;99897.91;4428436;32;33960;-78
2023/05/07 02:10:38;;;;;;;;;;;;;;;17.39;62.64;99896.63;4423925;32;34784;-79
2023/05/07 02:13:06;;;;;;;;;;;;;;;17.20;63.57;99900.72;4423951;32;33357;-78
2023/05/07 02:15:33;;;;;;;;;;;;;;;17.33;63.45;99898.91;4431476;32;33731;-79
2023/05/07 02:18:06;;;;;;;;;;;;;;;17.27;63.40;99897.50;4433399;32;32735;-79
2023/05/07 02:20:35;;;;;;;;;;;;;;;17.21;63.66;99902.41;4437167;32;32502;-78
2023/05/07 02:23:03;;;;;;;;;;;;;;;17.20;63.67;99906.03;4455998;32;36455;-79
2023/05/07 02:25:31;;;;;;;;;;;;;;;17.30;63.30;99907.97;4432619;32;33634;-78
2023/05/07 02:27:59;;;;;;;;;;;;;;;17.24;62.74;99902.22;4458236;32;34398;-79
2023/05/07 02:30:28;;;;;;;;;;;;;;;17.18;62.68;99897.28;4430498;32;33925;-78
2023/05/07 02:32:58;;;;;;;;;;;;;;;17.06;63.39;99896.31;4432875;32;32723;-79
2023/05/07 02:35:25;;;;;;;;;;;;;;;17.09;63.19;99902.31;4447353;32;34145;-79
2023/05/07 02:37:53;;;;;;;;;;;;;;;16.98;63.34;99896.00;4431453;32;33996;-79
2023/05/07 02:40:21;;;;;;;;;;;;;;;17.06;63.15;99889.16;4443024;32;33839;-79
2023/05/07 02:42:53;;;;;;;;;;;;;;;17.01;63.50;99893.13;4435061;32;32837;-79
2023/05/07 02:45:22;;;;;;;;;;;;;;;17.12;62.93;99888.75;4445282;32;34727;-79
2023/05/07 02:47:51;;;;;;;;;;;;;;;17.02;63.03;99887.66;4444228;32;34279;-78
2023/05/07 02:50:19;;;;;;;;;;;;;;;16.91;63.23;99889.38;4444924;32;33879;-79
2023/05/07 02:52:48;;;;;;;;;;;;;;;17.06;62.30;99886.50;4448365;32;33701;-78
2023/05/07 02:55:16;;;;;;;;;;;;;;;17.08;61.92;99889.91;4417077;32;33061;-79
2023/05/07 02:57:44;;;;;;;;;;;;;;;16.90;62.82;99896.50;4434701;32;35002;-79
2023/05/07 03:00:12;;;;;;;;;;;;;;;16.97;62.46;99897.81;4437788;32;33908;-79
2023/05/07 03:02:42;;;;;;;;;;;;;;;16.74;63.12;99893.19;4446648;32;33684;-79
2023/05/07 03:05:10;;;;;;;;;;;;;;;16.65;63.92;99903.47;4433031;32;33445;-79
2023/05/07 03:07:38;;;;;;;;;;;;;;;16.57;64.51;99894.31;4435179;32;34303;-79
2023/05/07 03:10:07;;;;;;;;;;;;;;;16.73;64.01;99891.47;4447473;32;34140;-78
2023/05/07 03:12:36;;;;;;;;;;;;;;;16.79;63.87;99893.72;4432060;32;32824;-78
2023/05/07 03:15:05;;;;;;;;;;;;;;;16.75;64.23;99885.06;4448276;32;34601;-79
2023/05/07 03:17:32;;;;;;;;;;;;;;;16.88;63.24;99893.09;4430247;32;34265;-79
2023/05/07 03:20:00;;;;;;;;;;;;;;;16.77;64.11;99891.16;4436455;32;32932;-79
2023/05/07 03:22:29;;;;;;;;;;;;;;;16.75;64.18;99887.75;4433327;32;33311;-79
2023/05/07 03:24:57;;;;;;;;;;;;;;;16.78;64.11;99889.34;4448401;32;35575;-79
2023/05/07 03:27:24;;;;;;;;;;;;;;;17.00;62.87;99894.94;4460229;32;33857;-78
2023/05/07 03:29:53;;;;;;;;;;;;;;;16.80;63.82;99892.75;4431610;32;33475;-79
2023/05/07 03:32:21;;;;;;;;;;;;;;;16.71;64.12;99888.00;4419836;32;32471;-79
2023/05/07 03:34:50;;;;;;;;;;;;;;;16.64;64.36;99891.09;4435328;32;33823;-79
2023/05/07 03:37:18;;;;;;;;;;;;;;;16.62;64.30;99890.38;4434533;32;33905;-78
2023/05/07 03:39:46;;;;;;;;;;;;;;;16.64;64.35;99891.09;4445204;32;33460;-78
2023/05/07 03:42:15;;;;;;;;;;;;;;;16.54;64.47;99894.50;4433036;32;33114;-79
2023/05/07 03:44:42;;;;;;;;;;;;;;;16.41;65.05;99907.78;4435548;32;32853;-79
2023/05/07 03:47:10;;;;;;;;;;;;;;;16.26;65.34;99903.47;4443887;32;32683;-78
2023/05/07 03:49:38;;;;;;;;;;;;;;;16.24;65.13;99906.22;4414199;32;32968;-79
2023/05/07 03:52:06;;;;;;;;;;;;;;;16.39;64.83;99909.69;4436304;32;32380;-79
2023/05/07 03:54:35;;;;;;;;;;;;;;;16.44;64.96;99912.91;4434495;32;34646;-79
2023/05/07 03:57:05;;;;;;;;;;;;;;;16.49;64.76;99909.94;4427274;32;33717;-78
2023/05/07 03:59:32;;;;;;;;;;;;;;;16.50;64.69;99912.50;4439188;32;34682;-79
2023/05/07 04:02:01;;;;;;;;;;;;;;;16.55;64.30;99921.03;4439453;32;33577;-79
2023/05/07 04:04:33;;;;;;;;;;;;;;;16.57;64.23;99916.47;4427740;32;33803;-79
2023/05/07 04:07:01;;;;;;;;;;;;;;;16.73;63.52;99910.16;4431471;32;33599;-79
2023/05/07 04:09:29;;;;;;;;;;;;;;;16.60;63.94;99908.25;4414054;32;33890;-78
2023/05/07 04:11:57;;;;;;;;;;;;;;;16.49;64.88;99910.78;4433883;32;33107;-78
2023/05/07 04:14:28;;;;;;;;;;;;;;;16.58;64.46;99904.00;4439993;32;33753;-79
2023/05/07 04:16:56;;;;;;;;;;;;;;;16.63;64.36;99908.06;4421556;32;34907;-78
2023/05/07 04:19:25;;;;;;;;;;;;;;;16.85;63.45;99903.97;4430594;32;32873;-79
2023/05/07 04:21:56;;;;;;;;;;;;;;;16.93;63.14;99909.63;4433023;32;32974;-78
2023/05/07 04:24:27;;;;;;;;;;;;;;;16.80;64.04;99914.94;4434124;32;34103;-79
2023/05/07 04:26:58;;;;;;;;;;;;;;;16.92;64.05;99913.28;4424668;32;34348;-79
2023/05/07 04:29:27;;;;;;;;;;;;;;;17.17;63.16;99923.09;4437554;32;33865;-79
2023/05/07 04:31:56;;;;;;;;;;;;;;;16.89;64.75;99926.81;4439228;32;33303;-79
2023/05/07 04:34:26;;;;;;;;;;;;;;;17.01;65.25;99931.31;4426863;32;34445;-79
2023/05/07 04:36:57;;;;;;;;;;;;;;;16.85;66.34;99931.50;4426908;32;34327;-78
2023/05/07 04:39:26;;;;;;;;;;;;;;;17.26;64.99;99941.16;4440379;32;34796;-79
2023/05/07 04:41:56;;;;;;;;;;;;;;;17.28;65.43;99935.69;4447588;32;33356;-80
2023/05/07 04:44:25;;;;;;;;;;;;;;;17.42;65.22;99938.25;4435246;32;34716;-79
2023/05/07 04:46:55;;;;;;;;;;;;;;;17.75;64.54;99934.22;4432031;32;33535;-80
2023/05/07 04:49:28;;;;;;;;;;;;;;;17.90;64.02;99933.13;4440007;32;32682;-79
2023/05/07 04:51:58;;;;;;;;;;;;;;;17.96;64.00;99932.69;4419679;32;33089;-79
2023/05/07 04:54:27;;;;;;;;;;;;;;;18.16;63.85;99924.06;4448712;32;33859;-79
2023/05/07 04:56:56;;;;;;;;;;;;;;;18.43;63.31;99925.69;4423472;32;32653;-79
2023/05/07 04:59:28;;;;;;;;;;;;;;;18.64;62.89;99918.72;4438935;32;33700;-79
2023/05/07 05:01:57;;;;;;;;;;;;;;;18.79;61.92;99921.22;4424278;32;33406;-79
2023/05/07 05:04:26;;;;;;;;;;;;;;;18.89;61.78;99927.59;4426201;32;33554;-79
2023/05/07 05:06:54;;;;;;;;;;;;;;;18.72;62.34;99928.03;4432085;32;34329;-79
2023/05/07 05:09:23;;;;;;;;;;;;;;;18.66;62.85;99930.16;4424519;32;33876;-79
2023/05/07 05:11:53;;;;;;;;;;;;;;;18.62;63.18;99930.50;4421218;32;33311;-79
2023/05/07 05:14:21;;;;;;;;;;;;;;;18.37;63.76;99931.47;4423286;32;33555;-79
2023/05/07 05:19:33;;;;;;;;;;;;;;;18.55;63.36;99929.25;4438578;32;33781;-79
2023/05/07 05:22:04;;;;;;;;;;;;;;;18.61;63.07;99940.37;4424335;32;33090;-79
2023/05/07 05:24:33;;;;;;;;;;;;;;;18.81;62.80;99922.00;4413551;32;33362;-79
2023/05/07 05:27:03;;;;;;;;;;;;;;;18.96;62.27;99934.19;4425825;32;35518;-79
2023/05/07 05:29:32;;;;;;;;;;;;;;;19.02;61.94;99933.72;4425943;32;33413;-79
2023/05/07 05:32:06;;;;;;;;;;;;;;;18.85;62.13;99926.16;4426631;32;33344;-79
2023/05/07 05:34:36;;;;;;;;;;;;;;;18.89;62.06;99927.59;4420776;32;32825;-79
2023/05/07 05:37:07;;;;;;;;;;;;;;;19.05;61.87;99932.66;4425664;32;32858;-79
2023/05/07 05:39:36;;;;;;;;;;;;;;;19.19;61.54;99922.56;4408744;32;33736;-79
2023/05/07 05:42:05;;;;;;;;;;;;;;;19.29;61.11;99922.72;4430399;32;33263;-79
2023/05/07 05:44:33;;;;;;;;;;;;;;;19.54;60.67;99921.62;4437518;32;33887;-79
2023/05/07 05:49:38;;;;;;;;;;;;;;;19.85;59.86;99911.19;4438239;32;33722;-79
2023/05/07 05:52:09;;;;;;;;;;;;;;;20.25;59.45;99905.25;4438227;32;33305;-79
2023/05/07 05:54:38;;;;;;;;;;;;;;;20.29;58.78;99910.25;4408325;32;34276;-79
2023/05/07 05:57:07;;;;;;;;;;;;;;;20.16;59.26;99904.19;4402223;32;33143;-79
2023/05/07 05:59:35;;;;;;;;;;;;;;;20.67;58.35;99901.72;4438137;32;33768;-79
2023/05/07 06:02:08;;;;;;;;;;;;;;;20.51;58.54;99909.37;4424813;32;33581;-79
2023/05/07 06:04:37;;;;;;;;;;;;;;;20.42;58.03;99916.31;4429764;32;33582;-79
2023/05/07 06:07:08;;;;;;;;;;;;;;;20.74;57.23;99914.63;4437165;32;33873;-79
2023/05/07 06:09:45;;;;;;;;;;;;;;;20.90;56.51;99909.66;4419100;32;32816;-79
2023/05/07 06:12:16;;;;;;;;;;;;;;;21.04;56.70;99912.03;4427805;32;32153;-79
2023/05/07 06:14:44;;;;;;;;;;;;;;;21.31;56.08;99907.97;4431096;32;33822;-79
2023/05/07 06:17:12;;;;;;;;;;;;;;;21.31;55.78;99910.66;4434119;32;33849;-79
2023/05/07 06:19:42;;;;;;;;;;;;;;;21.50;55.38;99913.44;4447878;32;34082;-79
2023/05/07 06:22:13;;;;;;;;;;;;;;;21.90;53.05;99904.56;4419314;32;32424;-79
2023/05/07 06:24:55;;;;;;;;;;;;;;;22.26;50.12;99913.84;4434557;32;35575;-79
2023/05/07 06:27:27;;;;;;;;;;;;;;;22.05;53.33;99908.56;4425232;32;32912;-79
2023/05/07 06:29:58;;;;;;;;;;;;;;;21.67;52.91;99911.97;4438973;32;34061;-79
2023/05/07 06:32:31;;;;;;;;;;;;;;;22.19;52.74;99910.88;4425800;32;32008;-79
2023/05/07 06:35:05;;;;;;;;;;;;;;;22.37;51.10;99912.91;4438546;32;34877;-78
2023/05/07 06:37:38;;;;;;;;;;;;;;;22.61;49.31;99910.66;4440123;32;34979;-79
2023/05/07 06:42:49;;;;;;;;;;;;;;;22.18;50.01;99911.03;4428589;32;33281;-79
2023/05/07 06:45:22;;;;;;;;;;;;;;;22.34;50.41;99918.56;4434679;32;33816;-79
2023/05/07 06:47:51;;;;;;;;;;;;;;;22.32;50.69;99916.03;4445918;32;34326;-79
2023/05/07 06:50:24;;;;;;;;;;;;;;;22.68;48.40;99911.78;4424277;32;32926;-79
2023/05/07 06:52:57;;;;;;;;;;;;;;;22.73;48.61;99914.88;4435724;32;32270;-79
2023/05/07 06:55:26;;;;;;;;;;;;;;;22.39;50.04;99916.28;4426803;32;33412;-79
2023/05/07 06:57:57;;;;;;;;;;;;;;;22.64;50.16;99914.88;4425649;32;34434;-79
2023/05/07 07:00:30;;;;;;;;;;;;;;;22.78;49.21;99910.94;4438800;32;33614;-79
2023/05/07 07:03:00;;;;;;;;;;;;;;;22.57;50.49;99909.25;4423038;32;31631;-79
2023/05/07 07:05:28;;;;;;;;;;;;;;;22.27;50.95;99922.81;4441456;32;34252;-78
2023/05/07 07:08:03;;;;;;;;;;;;;;;22.09;50.80;99926.13;4432352;32;35014;-79
2023/05/07 07:10:33;;;;;;;;;;;;;;;22.03;50.10;99932.06;4432211;32;33941;-78
2023/05/07 07:13:10;;;;;;;;;;;;;;;22.04;50.08;99936.44;4431226;32;33349;-79
2023/05/07 07:15:40;;;;;;;;;;;;;;;22.15;50.18;99939.03;4426388;32;33033;-79
2023/05/07 07:18:21;;;;;;;;;;;;;;;22.26;49.03;99943.44;4416656;32;35683;-80
2023/05/07 07:20:59;;;;;;;;;;;;;;;22.59;48.72;99944.91;4442395;32;34859;-79
2023/05/07 07:23:30;;;;;;;;;;;;;;;22.79;48.33;99944.91;4417177;32;33067;-80
2023/05/07 07:26:05;;;;;;;;;;;;;;;23.02;49.60;99949.06;4430716;32;34063;-80
2023/05/07 07:28:45;;;;;;;;;;;;;;;22.92;49.43;99950.91;4429878;32;33434;-79
2023/05/07 07:31:15;;;;;;;;;;;;;;;22.75;49.85;99955.16;4417195;32;33999;-79
2023/05/07 07:33:43;;;;;;;;;;;;;;;23.13;50.71;99966.94;4408190;32;33075;-79
2023/05/07 07:36:20;;;;;;;;;;;;;;;22.93;50.73;99958.88;4441126;32;34001;-79
2023/05/07 07:38:55;;;;;;;;;;;;;;;23.00;51.06;99965.38;4415480;32;33000;-79
2023/05/07 07:41:33;;;;;;;;;;;;;;;22.95;51.58;99966.78;4431524;32;33839;-79
2023/05/07 07:44:07;;;;;;;;;;;;;;;23.25;51.72;99963.91;4414108;32;32796;-79
2023/05/07 07:46:36;;;;;;;;;;;;;;;23.06;51.29;99969.31;4414053;32;34212;-79
2023/05/07 07:49:11;;;;;;;;;;;;;;;22.97;51.33;99967.50;4418045;32;34943;-79
2023/05/07 07:51:42;;;;;;;;;;;;;;;22.90;51.51;99974.44;4404749;32;32984;-79
2023/05/07 07:54:16;;;;;;;;;;;;;;;22.80;51.84;99965.50;4429237;32;33144;-79
2023/05/07 07:56:49;;;;;;;;;;;;;;;22.96;51.91;99973.88;4428463;32;33930;-79
2023/05/07 07:59:18;;;;;;;;;;;;;;;22.75;53.12;99969.44;4428861;32;35335;-79
2023/05/07 08:04:45;;;;;;;;;;;;;;;22.65;53.64;99971.28;4437353;32;33414;-80
2023/05/07 08:07:20;;;;;;;;;;;;;;;22.57;53.64;99970.28;4445465;32;33846;-81
2023/05/07 08:09:57;;;;;;;;;;;;;;;22.07;55.24;99968.41;4448716;32;34040;-79
2023/05/07 08:12:33;;;;;;;;;;;;;;;22.33;54.37;99973.34;4430828;32;33436;-79
2023/05/07 08:15:08;;;;;;;;;;;;;;;22.52;53.72;99970.69;4443159;32;33446;-79
2023/05/07 08:17:41;;;;;;;;;;;;;;;22.50;54.06;99964.59;4459277;32;34576;-79
2023/05/07 08:20:13;;;;;;;;;;;;;;;22.79;53.75;99959.25;4418949;32;33419;-79
2023/05/07 08:22:46;;;;;;;;;;;;;;;22.63;53.54;99957.09;4461016;32;34514;-79
2023/05/07 08:25:16;;;;;;;;;;;;;;;22.64;53.28;99956.09;4441600;32;34213;-79
2023/05/07 08:27:44;;;;;;;;;;;;;;;22.61;53.67;99963.63;4442443;32;33992;-79
2023/05/07 08:32:52;;;;;;;;;;;;;;;22.60;54.20;99952.03;4446740;32;34394;-78
2023/05/07 08:35:25;;;;;;;;;;;;;;;22.71;54.20;99959.94;4447298;32;33670;-79
2023/05/07 08:37:56;;;;;;;;;;;;;;;22.79;53.21;99961.94;4445818;32;34169;-79
2023/05/07 08:40:33;;;;;;;;;;;;;;;22.70;53.77;99969.03;4445207;32;35853;-79
2023/05/07 08:43:06;;;;;;;;;;;;;;;22.84;53.04;99969.59;4433792;32;33213;-79
2023/05/07 08:45:36;;;;;;;;;;;;;;;22.58;53.60;99964.75;4437827;32;32147;-78
2023/05/07 08:48:16;;;;;;;;;;;;;;;22.78;53.05;99965.59;4444263;32;33792;-79
2023/05/07 08:50:54;;;;;;;;;;;;;;;23.10;52.33;99970.75;4458798;32;34738;-79
2023/05/07 08:53:25;;;;;;;;;;;;;;;22.80;52.38;99971.72;4455779;32;33844;-79
2023/05/07 08:55:58;;;;;;;;;;;;;;;22.69;54.30;99967.34;4434252;32;34258;-79
2023/05/07 08:58:30;;;;;;;;;;;;;;;23.25;51.63;99977.38;4443148;32;34319;-79
2023/05/07 09:01:12;;;;;;;;;;;;;;;23.19;52.26;99964.50;4430282;32;35070;-78
2023/05/07 09:03:43;;;;;;;;;;;;;;;22.78;52.33;99973.69;4456415;32;34673;-79
2023/05/07 09:06:12;;;;;;;;;;;;;;;23.14;51.29;99974.84;4427552;32;32911;-78
2023/05/07 09:08:44;;;;;;;;;;;;;;;23.47;51.28;99965.44;4445988;32;33078;-78
2023/05/07 09:14:04;;;;;;;;;;;;;;;23.59;50.19;99971.50;4447677;32;34826;-79
2023/05/07 09:16:39;;;;;;;;;;;;;;;23.97;49.42;99967.00;4446481;32;32497;-78
2023/05/07 09:19:07;;;;;;;;;;;;;;;23.88;47.72;99959.78;4446784;32;34875;-78
2023/05/07 09:21:36;;;;;;;;;;;;;;;23.86;48.91;99962.66;4445464;32;34265;-79
2023/05/07 09:24:09;;;;;;;;;;;;;;;23.82;46.72;99973.88;4433251;32;34488;-78
2023/05/07 09:26:40;;;;;;;;;;;;;;;24.07;47.82;99969.63;4435151;32;33062;-78
2023/05/07 09:29:12;;;;;;;;;;;;;;;24.09;47.85;99968.50;4448951;32;34951;-80
2023/05/07 09:31:41;;;;;;;;;;;;;;;24.71;44.54;99956.06;4420031;32;32765;-78
2023/05/07 09:34:12;;;;;;;;;;;;;;;24.90;44.67;99962.31;4446655;32;34464;-78
2023/05/07 09:36:48;;;;;;;;;;;;;;;24.64;44.36;99954.13;4435932;32;32314;-78
2023/05/07 09:39:19;;;;;;;;;;;;;;;24.78;44.58;99954.47;4459416;32;34851;-79
2023/05/07 09:42:02;;;;;;;;;;;;;;;24.80;45.33;99951.59;4437935;32;34088;-78
2023/05/07 09:44:32;;;;;;;;;;;;;;;24.93;44.34;99956.63;4446172;32;34235;-78
2023/05/07 09:47:08;;;;;;;;;;;;;;;24.32;46.85;99962.72;4446654;32;33362;-79
2023/05/07 09:49:42;;;;;;;;;;;;;;;24.39;46.01;99963.81;4433842;32;32644;-78
2023/05/07 09:52:18;;;;;;;;;;;;;;;24.71;45.62;99958.78;4438237;32;34968;-78
2023/05/07 09:54:52;;;;;;;;;;;;;;;24.72;46.09;99955.06;4447378;32;34248;-79
2023/05/07 10:00:15;;;;;;;;;;;;;;;24.33;44.32;99969.81;4433935;32;33497;-78
2023/05/07 10:02:49;;;;;;;;;;;;;;;24.49;45.84;99962.75;4422787;32;34474;-79
2023/05/07 10:05:20;;;;;;;;;;;;;;;24.72;45.57;99965.84;4438394;32;33308;-78
2023/05/07 10:07:50;;;;;;;;;;;;;;;24.45;45.89;99971.31;4416734;32;32274;-79
2023/05/07 10:10:20;;;;;;;;;;;;;;;24.82;44.58;99967.62;4420290;32;33288;-79
2023/05/07 10:12:54;;;;;;;;;;;;;;;24.34;45.84;99971.50;4446370;32;33949;-78
2023/05/07 10:15:25;;;;;;;;;;;;;;;24.32;46.85;99968.09;4422446;32;32719;-78
2023/05/07 10:17:57;;;;;;;;;;;;;;;24.01;47.07;99971.09;4447133;32;32449;-79
2023/05/07 10:20:26;;;;;;;;;;;;;;;24.09;47.07;99963.13;4433278;32;34049;-78
2023/05/07 10:22:56;;;;;;;;;;;;;;;24.23;46.67;99959.06;4433582;32;34005;-78
2023/05/07 10:25:28;;;;;;;;;;;;;;;23.85;47.77;99973.59;4447287;32;34637;-79
2023/05/07 10:28:02;;;;;;;;;;;;;;;24.01;46.85;99971.94;4419358;32;34159;-78
2023/05/07 10:30:45;;;;;;;;;;;;;;;23.92;47.41;99966.59;4444982;32;34285;-78
2023/05/07 10:33:18;;;;;;;;;;;;;;;23.97;47.60;99977.78;4446304;32;33983;-78
2023/05/07 10:35:52;;;;;;;;;;;;;;;23.95;47.24;99969.00;4446012;32;33583;-78
2023/05/07 10:38:25;;;;;;;;;;;;;;;23.73;47.34;99976.44;4445865;32;33374;-79
2023/05/07 10:40:57;;;;;;;;;;;;;;;23.90;46.87;99968.59;4448346;32;34106;-78
2023/05/07 10:43:33;;;;;;;;;;;;;;;24.08;46.02;99965.97;4458527;32;34750;-78
2023/05/07 10:46:11;;;;;;;;;;;;;;;24.28;45.51;99971.09;4445606;32;34401;-78
2023/05/07 10:49:03;;;;;;;;;;;;;;;24.43;44.61;99965.22;4447944;32;33005;-78
2023/05/07 10:51:35;;;;;;;;;;;;;;;24.62;42.83;99959.69;4434299;32;33947;-78
2023/05/07 10:54:20;;;;;;;;;;;;;;;24.37;43.37;99955.03;4448921;32;34700;-78
2023/05/07 10:56:51;;;;;;;;;;;;;;;24.16;43.85;99953.41;4432022;32;34007;-78
2023/05/07 10:59:33;;;;;;;;;;;;;;;24.50;42.09;99950.97;4444553;32;33608;-78
2023/05/07 11:02:03;;;;;;;;;;;;;;;24.08;44.60;99956.03;4443898;32;33596;-78
2023/05/07 11:04:41;;;;;;;;;;;;;;;24.40;44.40;99960.12;4446718;32;34678;-78
2023/05/07 11:07:27;;;;;;;;;;;;;;;24.68;43.93;99942.88;4459393;32;33428;-78
2023/05/07 11:10:03;;;;;;;;;;;;;;;24.82;42.46;99940.63;4458208;32;33120;-79
2023/05/07 11:12:43;;;;;;;;;;;;;;;25.02;40.98;99939.47;4433449;32;35540;-78
2023/05/07 11:15:37;;;;;;;;;;;;;;;25.18;39.30;99939.63;4459127;32;34041;-79
2023/05/07 11:18:10;;;;;;;;;;;;;;;25.49;38.72;99933.72;4444472;32;32847;-78
2023/05/07 11:20:46;;;;;;;;;;;;;;;25.61;39.01;99946.00;4418591;32;32159;-78
2023/05/07 11:23:32;;;;;;;;;;;;;;;25.67;40.04;99937.22;4448586;32;33908;-79
2023/05/07 11:28:41;;;;;;;;;;;;;;;26.12;34.58;99944.25;4434077;32;33783;-78
2023/05/07 11:31:17;;;;;;;;;;;;;;;25.48;37.38;99942.84;4446233;32;32611;-78
2023/05/07 11:33:53;;;;;;;;;;;;;;;25.44;36.15;99945.03;4448921;32;34206;-78
2023/05/07 11:36:23;;;;;;;;;;;;;;;25.93;35.56;99941.78;4433370;32;33646;-78
2023/05/07 11:38:54;;;;;;;;;;;;;;;25.98;35.52;99942.16;4447325;32;33950;-78
2023/05/07 11:41:22;;;;;;;;;;;;;;;25.93;35.40;99936.38;4447235;32;33521;-78
2023/05/07 11:43:57;;;;;;;;;;;;;;;26.02;35.53;99941.66;4444499;32;34023;-78
2023/05/07 11:46:31;;;;;;;;;;;;;;;25.75;35.21;99942.72;4433552;32;35079;-78
2023/05/07 11:49:01;;;;;;;;;;;;;;;26.17;36.21;99930.22;4435514;32;32742;-78
2023/05/07 11:54:18;;;;;;;;;;;;;;;26.58;36.79;99923.06;4462664;32;33949;-78
2023/05/07 11:56:50;;;;;;;;;;;;;;;26.29;36.17;99918.91;4434259;32;33332;-78
2023/05/07 11:59:20;;;;;;;;;;;;;;;26.59;36.05;99926.59;4446539;32;34215;-78
2023/05/07 12:01:57;;;;;;;;;;;;;;;27.17;34.12;99910.25;4447554;32;33275;-78
2023/05/07 12:04:34;;;;;;;;;;;;;;;27.14;34.35;99916.00;4436577;32;34260;-79
2023/05/07 12:07:07;;;;;;;;;;;;;;;27.25;33.99;99915.66;4460748;32;33932;-80
2023/05/07 12:09:42;;;;;;;;;;;;;;;27.62;33.42;99916.06;4437109;32;34915;-79
2023/05/07 12:12:18;;;;;;;;;;;;;;;28.04;31.97;99905.75;4448679;32;33240;-78
2023/05/07 12:14:50;;;;;;;;;;;;;;;27.74;32.17;99904.69;4423945;32;32774;-79
2023/05/07 12:17:26;;;;;;;;;;;;;;;27.54;32.78;99908.81;4446370;32;33935;-79
2023/05/07 12:20:04;;;;;;;;;;;;;;;27.58;31.64;99899.28;4435180;32;33387;-78
2023/05/07 12:22:34;;;;;;;;;;;;;;;27.42;32.75;99904.75;4435329;32;33101;-78
2023/05/07 12:25:06;;;;;;;;;;;;;;;27.38;34.21;99903.41;4447077;32;33670;-79
2023/05/07 12:27:41;;;;;;;;;;;;;;;27.29;33.30;99908.84;4446513;32;33827;-78
2023/05/07 12:30:11;;;;;;;;;;;;;;;26.98;34.01;99900.56;4421238;32;34121;-79
2023/05/07 12:32:39;;;;;;;;;;;;;;;27.13;33.09;99902.63;4459214;32;34222;-79
2023/05/07 12:35:19;;;;;;;;;;;;;;;27.33;33.88;99900.38;4447989;32;34720;-79
2023/05/07 12:37:54;;;;;;;;;;;;;;;27.26;33.78;99900.22;4459298;32;33774;-79
2023/05/07 12:43:04;;;;;;;;;;;;;;;27.93;32.13;99903.44;4443790;32;32218;-79
2023/05/07 12:45:40;;;;;;;;;;;;;;;27.53;33.60;99901.69;4435268;32;34176;-79
2023/05/07 12:48:12;;;;;;;;;;;;;;;27.71;32.98;99890.59;4422429;32;33184;-79
2023/05/07 12:50:40;;;;;;;;;;;;;;;27.69;33.08;99896.22;4447638;32;33929;-79
2023/05/07 12:53:07;;;;;;;;;;;;;;;27.68;32.62;99889.09;4447974;32;33225;-79
2023/05/07 12:55:45;;;;;;;;;;;;;;;27.80;32.14;99893.13;4446951;32;33800;-79
2023/05/07 12:58:19;;;;;;;;;;;;;;;27.18;32.55;99890.25;4434311;32;33988;-79
2023/05/07 13:03:30;;;;;;;;;;;;;;;28.03;32.12;99897.78;4446155;32;34176;-79
2023/05/07 13:06:06;;;;;;;;;;;;;;;27.78;33.66;99895.19;4447556;32;34242;-78
2023/05/07 13:08:43;;;;;;;;;;;;;;;27.45;32.52;99899.00;4445283;32;34000;-78
2023/05/07 13:11:20;;;;;;;;;;;;;;;26.87;33.94;99900.91;4442454;32;33876;-78
2023/05/07 13:13:53;;;;;;;;;;;;;;;26.86;34.09;99887.53;4453331;32;33830;-78
2023/05/07 13:16:21;;;;;;;;;;;;;;;27.46;32.16;99884.41;4453291;32;34684;-79
2023/05/07 13:18:57;;;;;;;;;;;;;;;27.62;32.61;99886.22;4421032;32;32885;-79
2023/05/07 13:21:33;;;;;;;;;;;;;;;27.59;32.49;99886.59;4451924;32;34484;-78
2023/05/07 13:24:05;;;;;;;;;;;;;;;27.81;32.40;99877.69;4445758;32;33508;-78
2023/05/07 13:26:36;;;;;;;;;;;;;;;27.28;34.67;99884.63;4432379;32;34894;-79
2023/05/07 13:29:11;;;;;;;;;;;;;;;27.13;35.62;99880.94;4418227;32;32882;-79
2023/05/07 13:31:43;;;;;;;;;;;;;;;26.61;35.22;99884.81;4452337;32;34561;-79
2023/05/07 13:34:15;;;;;;;;;;;;;;;27.02;33.97;99876.69;4420773;32;32187;-78
2023/05/07 13:36:50;;;;;;;;;;;;;;;26.74;34.29;99868.06;4420938;32;33330;-78
2023/05/07 13:42:04;;;;;;;;;;;;;;;26.05;35.24;99876.38;4435336;32;32960;-79